createdAt,value
2023-01-20T00:00:51.158Z,-5.8
2023-01-20T00:06:13.924Z,-5.9
2023-01-20T00:11:50.166Z,-5.9
2023-01-20T00:17:09.784Z,-5.8
2023-01-20T00:22:59.141Z,-5.8
2023-01-20T00:28:26.999Z,-5.7
2023-01-20T00:34:07.946Z,-5.7
2023-01-20T00:39:33.807Z,-5.8
2023-01-20T00:44:55.840Z,-5.6
2023-01-20T00:50:33.942Z,-5.7
2023-01-20T00:55:59.770Z,-5.9
2023-01-20T01:01:46.771Z,-5.8
2023-01-20T01:07:26.613Z,-6
2023-01-20T01:12:39.891Z,-6
2023-01-20T01:18:21.257Z,-6
2023-01-20T01:23:51.812Z,-5.9
2023-01-20T01:29:36.763Z,-5.8
2023-01-20T01:35:07.921Z,-5.7
2023-01-20T01:40:19.534Z,-5.9
2023-01-20T01:45:48.393Z,-5.9
2023-01-20T01:51:42.667Z,-5.8
2023-01-20T01:57:19.467Z,-6
2023-01-20T02:02:53.442Z,-5.8
2023-01-20T02:08:24.281Z,-5.9
2023-01-20T02:13:30.446Z,-6.1
2023-01-20T02:19:11.622Z,-6.1
2023-01-20T02:25:01.667Z,-6.4
2023-01-20T02:30:26.911Z,-6.4
2023-01-20T02:36:05.437Z,-6.3
2023-01-20T02:41:13.347Z,-6.4
2023-01-20T02:46:54.025Z,-6.3
2023-01-20T02:52:31.855Z,-6.3
2023-01-20T02:57:56.763Z,-6.2
2023-01-20T03:03:28.984Z,-6.2
2023-01-20T03:09:20.410Z,-6.1
2023-01-20T03:14:45.703Z,-6.3
2023-01-20T03:20:17.568Z,-6.3
2023-01-20T03:25:39.439Z,-6.4
2023-01-20T03:31:25.808Z,-6.5
2023-01-20T03:36:50.465Z,-6.6
2023-01-20T03:42:26.817Z,-6.8
2023-01-20T03:47:44.578Z,-6.6
2023-01-20T03:53:16.768Z,-6.6
2023-01-20T03:58:55.268Z,-6.6
2023-01-20T04:04:29.552Z,-6.6
2023-01-20T04:09:53.426Z,-6.6
2023-01-20T04:15:30.471Z,-6.7
2023-01-20T04:21:01.809Z,-6.8
2023-01-20T04:26:36.740Z,-6.8
2023-01-20T04:32:03.284Z,-6.8
2023-01-20T04:37:54.190Z,-6.8
2023-01-20T04:43:16.698Z,-6.7
2023-01-20T04:49:02.836Z,-7.1
2023-01-20T04:54:19.647Z,-6.9
2023-01-20T04:59:53.797Z,-6.7
2023-01-20T05:05:35.881Z,-6.6
2023-01-20T05:11:15.211Z,-6.6
2023-01-20T05:16:28.532Z,-6.8
2023-01-20T05:22:19.655Z,-6.8
2023-01-20T05:27:43.373Z,-6.9
2023-01-20T05:32:58.681Z,-6.8
2023-01-20T05:38:52.066Z,-6.6
2023-01-20T05:44:11.886Z,-6.3
2023-01-20T05:49:47.654Z,-6.3
2023-01-20T05:55:22.603Z,-6.3
2023-01-20T06:00:46.440Z,-6.3
2023-01-20T06:06:12.738Z,-6.4
2023-01-20T06:12:08.374Z,-6.4
2023-01-20T06:17:44.819Z,-6.6
2023-01-20T06:22:54.725Z,-6.5
2023-01-20T06:28:30.342Z,-6.5
2023-01-20T06:34:10.403Z,-6.3
2023-01-20T06:39:49.793Z,-6.3
2023-01-20T06:45:03.054Z,-6.2
2023-01-20T06:50:37.152Z,-6.2
2023-01-20T06:56:17.127Z,-6.1
2023-01-20T07:01:49.305Z,-5.9
2023-01-20T07:07:21.083Z,-6.1
2023-01-20T07:12:45.011Z,-6
2023-01-20T07:18:37.788Z,-6.1
2023-01-20T07:24:11.749Z,-6.3
2023-01-20T07:29:42.599Z,-6.2
2023-01-20T07:34:54.573Z,-6.2
2023-01-20T07:40:40.364Z,-6.1
2023-01-20T07:46:26.527Z,-6.2
2023-01-20T07:51:54.916Z,-6.1
2023-01-20T07:57:16.390Z,-6
2023-01-20T08:02:54.467Z,-6
2023-01-20T08:08:16.634Z,-5.9
2023-01-20T08:13:50.872Z,-5.9
2023-01-20T08:19:30.566Z,-5.7
2023-01-20T08:24:54.508Z,-5.7
2023-01-20T08:30:23.895Z,-5.5
2023-01-20T08:36:20.768Z,-5.4
2023-01-20T08:41:33.860Z,-5.4
2023-01-20T08:47:00.334Z,-5.3
2023-01-20T08:52:46.456Z,-5.3
2023-01-20T08:58:13.329Z,-5.1
2023-01-20T09:04:05.702Z,-5.1
2023-01-20T09:09:21.723Z,-4.9
2023-01-20T09:14:54.926Z,-4.8
2023-01-20T09:20:37.820Z,-4.7
2023-01-20T09:26:02.316Z,-4.6
2023-01-20T09:31:29.663Z,-4.4
2023-01-20T09:37:04.767Z,-4.4
2023-01-20T09:42:48.933Z,-4.3
2023-01-20T09:48:12.188Z,-4.2
2023-01-20T09:53:38.347Z,-4.1
2023-01-20T09:59:24.706Z,-3.7
2023-01-20T10:04:58.896Z,-3.7
2023-01-20T10:10:13.752Z,-3.6
2023-01-20T10:15:51.585Z,-3.7
2023-01-20T10:21:39.465Z,-3.7
2023-01-20T10:27:15.871Z,-3.6
2023-01-20T10:32:30.821Z,-3.6
2023-01-20T10:37:58.976Z,-3.5
2023-01-20T10:43:33.467Z,-3.1
2023-01-20T10:49:21.718Z,-3.3
2023-01-20T11:00:07.476Z,-3.2
2023-01-20T11:05:55.809Z,-3.1
2023-01-20T11:11:31.778Z,-2.9
2023-01-20T11:17:08.316Z,-2.9
2023-01-20T11:22:48.487Z,-2.7
2023-01-20T11:28:18.206Z,-2.8
2023-01-20T11:33:53.722Z,-2.8
2023-01-20T11:39:19.513Z,-2.8
2023-01-20T11:44:36.418Z,-2.6
2023-01-20T11:50:26.831Z,-2.7
2023-01-20T11:55:53.107Z,-2.6
2023-01-20T12:06:52.128Z,-2.4
2023-01-20T12:12:37.208Z,-2.3
2023-01-20T12:18:03.441Z,-2.5
2023-01-20T12:23:35.016Z,-2.3
2023-01-20T12:29:15.585Z,-2.1
2023-01-20T12:34:45.951Z,-2.2
2023-01-20T12:40:07.282Z,-2
2023-01-20T12:45:51.635Z,-2.1
2023-01-20T12:51:26.647Z,-2.2
2023-01-20T12:57:02.135Z,-1.9
2023-01-20T13:02:39.774Z,-1.8
2023-01-20T13:08:01.424Z,-1.9
2023-01-20T13:13:31.373Z,-1.9
2023-01-20T13:19:07.832Z,-1.9
2023-01-20T13:24:48.865Z,-1.8
2023-01-20T13:30:26.431Z,-1.7
2023-01-20T13:35:40.899Z,-1.8
2023-01-20T13:41:35.700Z,-1.8
2023-01-20T13:46:44.215Z,-1.6
2023-01-20T13:52:36.402Z,-1.4
2023-01-20T13:57:51.668Z,-1.5
2023-01-20T14:03:39.982Z,-1.5
2023-01-20T14:09:09.712Z,-1.5
2023-01-20T14:14:52.562Z,-1.3
2023-01-20T14:20:20.652Z,-1.6
2023-01-20T14:25:42.879Z,-1.4
2023-01-20T14:31:25.083Z,-1.3
2023-01-20T14:37:06.043Z,-1.2
2023-01-20T14:42:14.361Z,-1.6
2023-01-20T14:47:57.589Z,-1.4
2023-01-20T14:53:31.871Z,-1.4
2023-01-20T14:59:04.579Z,-1.3
2023-01-20T15:04:54.360Z,-1.2
2023-01-20T15:10:02.650Z,-1.3
2023-01-20T15:15:43.901Z,-1.6
2023-01-20T15:21:32.403Z,-1.8
2023-01-20T15:26:56.562Z,-2
2023-01-20T15:32:29.374Z,-2
2023-01-20T15:38:03.921Z,-2.1
2023-01-20T15:43:32.416Z,-2.3
2023-01-20T15:49:04.865Z,-2.3
2023-01-20T15:54:43.764Z,-2.4
2023-01-20T16:00:00.434Z,-2.5
2023-01-20T16:05:38.623Z,-2.6
2023-01-20T16:11:13.469Z,-2.8
2023-01-20T16:22:28.518Z,-3.2
2023-01-20T16:27:48.053Z,-3.2
2023-01-20T16:33:28.393Z,-3.1
2023-01-20T16:39:03.029Z,-3.3
2023-01-20T16:44:21.416Z,-3.4
2023-01-20T16:50:08.234Z,-3.5
2023-01-20T16:55:37.867Z,-3.3
2023-01-20T17:00:59.403Z,-3.4
2023-01-20T17:06:43.084Z,-3.6
2023-01-20T17:12:26.194Z,-3.4
2023-01-20T17:17:40.292Z,-3.5
2023-01-20T17:23:07.227Z,-3.7
2023-01-20T17:28:44.904Z,-3.4
2023-01-20T17:34:27.311Z,-3.5
2023-01-20T17:39:47.130Z,-3.5
2023-01-20T17:45:22.644Z,-3.6
2023-01-20T17:51:15.658Z,-3.9
2023-01-20T17:56:26.392Z,-4.1
2023-01-20T18:02:20.461Z,-4.1
2023-01-20T18:07:31.206Z,-4.1
2023-01-20T18:13:01.143Z,-4.1
2023-01-20T18:18:50.495Z,-4.3
2023-01-20T18:24:10.683Z,-4.4
2023-01-20T18:29:43.163Z,-4.5
2023-01-20T18:35:19.642Z,-4.4
2023-01-20T18:40:47.969Z,-4.4
2023-01-20T18:46:39.555Z,-4.4
2023-01-20T18:57:27.923Z,-4.6
2023-01-20T19:02:54.591Z,-4.6
2023-01-20T19:08:28.540Z,-4.9
2023-01-20T19:14:03.194Z,-4.8
2023-01-20T19:19:53.823Z,-4.8
2023-01-20T19:25:14.915Z,-4.8
2023-01-20T19:30:46.615Z,-4.8
2023-01-20T19:36:23.625Z,-5
2023-01-20T19:41:45.014Z,-5.5
2023-01-20T19:47:20.524Z,-5.4
2023-01-20T19:52:49.846Z,-5
2023-01-20T19:58:17.457Z,-4.9
2023-01-20T20:04:02.081Z,-4.9
2023-01-20T20:09:42.665Z,-5.1
2023-01-20T20:15:06.747Z,-5
2023-01-20T20:20:50.097Z,-4.9
2023-01-20T20:26:24.903Z,-4.9
2023-01-20T20:31:54.208Z,-4.7
2023-01-20T20:37:24.651Z,-4.6
2023-01-20T20:43:03.841Z,-4.6
2023-01-20T20:48:16.811Z,-4.5
2023-01-20T20:54:06.303Z,-4.3
2023-01-20T20:59:34.342Z,-4.4
2023-01-20T21:04:56.238Z,-4.3
2023-01-20T21:10:33.725Z,-4.5
2023-01-20T21:16:20.367Z,-4.7
2023-01-20T21:21:36.304Z,-4.8
2023-01-20T21:27:02.014Z,-4.8
2023-01-20T21:32:58.318Z,-4.6
2023-01-20T21:38:19.669Z,-4.5
2023-01-20T21:43:46.631Z,-4.4
2023-01-20T21:49:19.076Z,-4.4
2023-01-20T21:54:55.858Z,-4.4
2023-01-20T22:00:15.162Z,-4.6
2023-01-20T22:06:03.698Z,-5
2023-01-20T22:11:30.714Z,-5
2023-01-20T22:16:59.464Z,-4.9
2023-01-20T22:22:36.034Z,-4.8
2023-01-20T22:28:00.949Z,-4.8
2023-01-20T22:33:54.638Z,-4.7
2023-01-20T22:39:15.291Z,-4.6
2023-01-20T22:44:36.809Z,-4.5
2023-01-20T22:50:33.918Z,-4.6
2023-01-20T22:55:52.218Z,-4.6
2023-01-20T23:01:19.535Z,-4.7
2023-01-20T23:07:08.067Z,-4.7
2023-01-20T23:12:41.269Z,-4.7
2023-01-20T23:18:00.136Z,-4.6
2023-01-20T23:23:37.399Z,-4.6
2023-01-20T23:28:58.315Z,-4.6
2023-01-20T23:34:52.329Z,-4.7
2023-01-20T23:40:08.036Z,-4.5
2023-01-20T23:45:49.542Z,-4.5
2023-01-20T23:51:24.153Z,-4.6
2023-01-20T23:56:51.281Z,-4.6
